Impacts METAR Board
IDs:

KPDX - Portland Intl Arpt, OR, US

Updated at: 1400 UTC 13 Dec 2018
Potential Impact None Slight Moderate High
Time 13/02Z 13/03Z 13/04Z 13/05Z 13/06Z 13/07Z 13/08Z 13/09Z 13/10Z 13/11Z 13/12Z 13/13Z 13/14Z
Temp50 50 49 47 46 47 46 45 45 45 46 45 43
Dewpt41 40 39 40 41 41 40 40 41 41 40 40 40
Altim30.30 30.29 30.28 30.28 30.28 30.27 30.25 30.25 30.24 30.24 30.23 30.21 30.21
VIS10 10 10 10 10 10 10 10 10 10 10 10 10
CIG100 90 70 55 50 65 90 100 100 100 110 120 200
CoverOVCOVCOVCOVCOVCOVCOVCOVCOVCOVCOVCOVCOVC
FltCatVFRVFRVFRVFRVFRVFRVFRVFRVFRVFRVFRVFRVFR
WX---------RA----------------
WDir190170150120120110110110150140120120150
WSpd11 8 8 7 10 8 7 8 7 8 9 6 6
WGst-- -- -- -- -- -- -- -- -- -- -- -- --
Raw hourly METARs
KPDX 130153Z 19011KT 10SM SCT060 OVC100 10/05 A3030 RMK AO2 SLP261 T01000050
KPDX 130253Z 17008KT 10SM FEW060 OVC090 10/04 A3029 RMK AO2 SLP257 T01000044 58004
KPDX 130353Z 15008KT 10SM OVC070 09/04 A3028 RMK AO2 SLP255 T00940039
KPDX 130453Z 12007KT 10SM BKN055 OVC070 08/04 A3028 RMK AO2 SLP254 T00830044
KPDX 130553Z 12010KT 10SM -RA OVC050 08/05 A3028 RMK AO2 RAB12 SLP254 P0001 60001 T00780050 10106 20078 56003
KPDX 130653Z 11008KT 10SM OVC065 08/05 A3027 RMK AO2 RAE09B33E47 SLP249 P0000 T00830050
KPDX 130753Z 11007KT 10SM OVC090 08/04 A3025 RMK AO2 SLP243 T00780044 401060050
KPDX 130853Z 11008KT 10SM OVC100 07/04 A3025 RMK AO2 SLP241 60000 T00720044 56012
KPDX 130953Z 15007KT 10SM OVC100 07/05 A3024 RMK AO2 SLP241 T00720050
KPDX 131053Z 14008KT 10SM OVC100 07/05 A3024 RMK AO2 SLP240 T00720050
KPDX 131153Z 12009KT 10SM OVC110 08/04 A3023 RMK AO2 SLP235 60000 70002 T00780044 10083 20072 58006
KPDX 131253Z 12006KT 10SM BKN120 OVC160 07/04 A3021 RMK AO2 SLP229 T00720044
KPDX 131353Z 15006KT 10SM FEW100 OVC200 06/04 A3021 RMK AO2 SLP229 T00610044



Page loaded:  14:26 UTC  |   06:26 AM Pacific  |   07:26 AM Mountain  |   08:26 AM Central  |   09:26 AM Eastern

 

ADVISORIES

FORECASTS

FORECASTS

OBSERVATIONS

USER TOOLS

ABOUT US